Airfield :
LOGIN :

Register | Disclaimer

   EN    FR    IT 

 










Legend :    VFR   Marginal VFR   IFR   Intensive IFR   Very Intensive IFR
Visi :
Ceiling :
>= 8 km
>= 3000ft
5 to 8 km
1000 to 3000 ft
1500m to 5 km
500 to 1000 ft
800 to 1500m
200 to 500 ft
< 800m
< 200 ft
Symbols :   Thunderstorms  Fog  Heavy snow  Heavy precipitations  Wind > 20 kt
SIGMETs :     Misc.  Thunderstorms  Icing  Turbulence  Mountain Waves  Volcanic Ashes







- Airport Elevation : 359 ft
- IATA code : BVA
- Download approach charts


LFOB - Beauvais

CURRENT METAR :
  • 200900Z AUTO 21009KT 180V240 9999 BKN008 OVC012 07/06 Q1021 TEMPO 2000 DZRA OVC003

EXPIRED METARs :
  • 200830Z AUTO 20006KT 7000 OVC016 06/06 Q1021 TEMPO 2000 DZRA OVC003
  • 200800Z AUTO 21003KT 9000 BKN022 BKN029 OVC042 05/05 Q1021 TEMPO 2000 DZRA OVC003 BECMG 20013KT
  • 200730Z AUTO 20006KT 9999 BKN032 OVC043 05/05 Q1021 TEMPO 2000 DZRA OVC003
  • 200700Z AUTO 17003KT 9000 BKN040 OVC046 03/03 Q1021 TEMPO 2000 DZRA OVC003 BECMG 20013KT
  • 200630Z AUTO 17003KT 9000 OVC044 02/01 Q1022 TEMPO 2000 DZRA OVC003 BECMG 20013KT

TAF TAF LFOB
Valid from the 20 at 06:00 until the 21 at 06:00 UTC


200500Z 2006/2106 VRB02KT 9999 BKN030
BECMG 2006/2008 20013KT OVC012
TEMPO 2008/2106 2000 DZRA OVC003
ATIS : +33 3 44 11 49 28
No reported NOTAMs for that airfield.



MET'MAP, your aeronautical weather chart ! - Copyright ORBIFLY December 2007 - Disclaimer

ORBIFLY MET'MAP TEAM :

Programming & Development : Alexandra Zaïnal
Concept & Development : Baudouin d'Aumeries
Co-Development & Prog : Marc-Olivier Méhu
Technical & hardware support : Manuel Goepfert

Contact : metmap@orbifly.com




SOURCES & CREDITS :

   NOAA